createdAt,value
2018-08-31T00:01:38.441Z,99912.03
2018-08-31T00:04:43.946Z,99910.78
2018-08-31T00:07:29.249Z,99915.30
2018-08-31T00:12:19.759Z,99910.41
2018-08-31T00:14:48.723Z,99905.51
2018-08-31T00:17:17.652Z,99906.43
2018-08-31T00:19:46.309Z,99909.23
2018-08-31T00:22:14.997Z,99909.06
2018-08-31T00:24:59.482Z,99901.03
2018-08-31T00:27:39.042Z,99898.31
2018-08-31T00:30:18.633Z,99904.58
2018-08-31T00:38:03.201Z,99901.63
2018-08-31T00:41:11.746Z,99902.14
2018-08-31T00:45:49.523Z,99891.18
2018-08-31T00:48:18.097Z,99890.17
2018-08-31T00:50:46.677Z,99889.08
2018-08-31T00:53:15.361Z,99891.54
2018-08-31T00:55:43.962Z,99889.55
2018-08-31T00:58:12.570Z,99892.55
2018-08-31T01:00:41.412Z,99899.30
2018-08-31T01:03:10.117Z,99894.38
2018-08-31T01:05:38.887Z,99897.05
2018-08-31T01:08:07.896Z,99891.64
2018-08-31T01:10:36.920Z,99878.05
2018-08-31T01:13:05.557Z,99881.00
2018-08-31T01:15:34.141Z,99886.37
2018-08-31T01:18:02.804Z,99889.08
2018-08-31T01:20:31.432Z,99888.23
2018-08-31T01:23:00.046Z,99890.68
2018-08-31T01:25:28.728Z,99894.97
2018-08-31T01:27:57.539Z,99892.44
2018-08-31T01:30:26.203Z,99890.60
2018-08-31T01:32:54.966Z,99884.53
2018-08-31T01:35:23.594Z,99891.38
2018-08-31T01:37:52.183Z,99899.09
2018-08-31T01:40:20.834Z,99895.04
2018-08-31T01:42:49.424Z,99889.87
2018-08-31T01:45:18.035Z,99890.38
2018-08-31T01:47:46.601Z,99896.00
2018-08-31T01:50:15.234Z,99895.71
2018-08-31T01:52:43.895Z,99895.37
2018-08-31T01:55:12.474Z,99895.04
2018-08-31T01:57:41.037Z,99896.23
2018-08-31T02:00:09.976Z,99895.86
2018-08-31T02:02:38.553Z,99893.64
2018-08-31T02:05:07.310Z,99895.60
2018-08-31T02:07:35.930Z,99893.64
2018-08-31T02:10:05.359Z,99897.00
2018-08-31T02:12:34.022Z,99898.14
2018-08-31T02:15:02.665Z,99891.12
2018-08-31T02:17:31.335Z,99888.47
2018-08-31T02:19:59.957Z,99877.97
2018-08-31T02:22:28.625Z,99877.48
2018-08-31T02:24:57.313Z,99880.17
2018-08-31T02:27:26.006Z,99879.36
2018-08-31T02:29:54.618Z,99887.95
2018-08-31T02:32:23.251Z,99879.00
2018-08-31T02:34:51.923Z,99874.57
2018-08-31T02:37:20.612Z,99877.34
2018-08-31T02:39:49.281Z,99876.94
2018-08-31T02:42:18.016Z,99878.42
2018-08-31T02:44:52.049Z,99874.87
2018-08-31T02:47:20.610Z,99875.87
2018-08-31T02:49:49.352Z,99876.23
2018-08-31T02:52:17.914Z,99869.30
2018-08-31T02:54:46.958Z,99872.22
2018-08-31T02:57:15.555Z,99867.41
2018-08-31T02:59:44.141Z,99862.02
2018-08-31T03:02:12.721Z,99871.40
2018-08-31T03:04:41.389Z,99868.85
2018-08-31T03:07:10.014Z,99880.00
2018-08-31T03:09:38.661Z,99877.75
2018-08-31T03:12:07.275Z,99875.39
2018-08-31T03:14:35.864Z,99873.28
2018-08-31T03:17:04.510Z,99876.90
2018-08-31T03:19:33.197Z,99870.87
2018-08-31T03:22:01.801Z,99868.94
2018-08-31T03:24:31.126Z,99873.69
2018-08-31T03:26:59.701Z,99864.52
2018-08-31T03:29:28.317Z,99864.34
2018-08-31T03:31:56.994Z,99868.39
2018-08-31T03:34:25.599Z,99862.05
2018-08-31T03:36:54.256Z,99873.89
2018-08-31T03:39:23.389Z,99870.09
2018-08-31T03:41:52.950Z,99869.01
2018-08-31T03:44:21.637Z,99869.63
2018-08-31T03:46:50.337Z,99866.98
2018-08-31T03:49:19.025Z,99866.71
2018-08-31T03:51:47.690Z,99875.03
2018-08-31T03:54:16.369Z,99872.21
2018-08-31T03:56:45.010Z,99874.67
2018-08-31T03:59:13.621Z,99879.80
2018-08-31T04:01:42.320Z,99874.35
2018-08-31T04:04:10.972Z,99874.42
2018-08-31T04:06:39.565Z,99880.48
2018-08-31T04:09:08.855Z,99875.17
2018-08-31T04:11:37.433Z,99881.42
2018-08-31T04:14:06.286Z,99883.84
2018-08-31T04:16:34.878Z,99886.87
2018-08-31T04:19:07.585Z,99891.49
2018-08-31T04:21:36.221Z,99896.25
2018-08-31T04:24:04.809Z,99893.06
2018-08-31T04:26:33.470Z,99895.53
2018-08-31T04:29:02.060Z,99893.50
2018-08-31T04:31:30.710Z,99894.41
2018-08-31T04:33:59.471Z,99897.33
2018-08-31T04:36:28.079Z,99893.69
2018-08-31T04:38:56.668Z,99899.09
2018-08-31T04:41:25.319Z,99909.53
2018-08-31T04:43:54.071Z,99898.54
2018-08-31T04:46:23.277Z,99895.85
2018-08-31T04:48:51.906Z,99902.98
2018-08-31T04:51:20.510Z,99894.22
2018-08-31T04:53:49.067Z,99899.00
2018-08-31T04:56:17.647Z,99896.01
2018-08-31T04:58:46.269Z,99896.34
2018-08-31T05:01:16.096Z,99892.34
2018-08-31T05:03:44.727Z,99893.94
2018-08-31T05:06:13.329Z,99889.50
2018-08-31T05:08:41.921Z,99887.80
2018-08-31T05:11:10.636Z,99891.12
2018-08-31T05:13:39.390Z,99892.75
2018-08-31T05:16:08.917Z,99891.34
2018-08-31T05:18:37.523Z,99879.74
2018-08-31T05:21:06.182Z,99885.21
2018-08-31T05:23:34.806Z,99882.41
2018-08-31T05:26:03.498Z,99882.91
2018-08-31T05:28:32.282Z,99880.84
2018-08-31T05:31:03.432Z,99882.91
2018-08-31T05:33:32.264Z,99885.91
2018-08-31T05:36:00.901Z,99884.96
2018-08-31T05:38:31.900Z,99882.45
2018-08-31T05:41:00.573Z,99890.54
2018-08-31T05:43:29.154Z,99886.30
2018-08-31T05:45:57.833Z,99883.98
2018-08-31T05:48:26.445Z,99882.73
2018-08-31T05:50:55.085Z,99883.06
2018-08-31T05:53:23.748Z,99887.22
2018-08-31T05:55:52.397Z,99885.92
2018-08-31T05:58:21.076Z,99892.10
2018-08-31T06:00:49.670Z,99897.36
2018-08-31T06:03:18.272Z,99899.53
2018-08-31T06:05:47.049Z,99900.70
2018-08-31T06:08:15.701Z,99902.97
2018-08-31T06:10:44.338Z,99902.67
2018-08-31T06:13:13.238Z,99900.58
2018-08-31T06:15:41.897Z,99906.70
2018-08-31T06:18:10.746Z,99910.99
2018-08-31T06:20:39.455Z,99909.93
2018-08-31T06:23:08.156Z,99914.33
2018-08-31T06:25:36.852Z,99915.97
2018-08-31T06:28:05.632Z,99917.56
2018-08-31T06:30:34.512Z,99908.09
2018-08-31T06:33:03.696Z,99913.94
2018-08-31T06:35:32.390Z,99907.09
2018-08-31T06:38:01.082Z,99906.57
2018-08-31T06:40:29.776Z,99904.67
2018-08-31T06:42:58.478Z,99905.80
2018-08-31T06:45:27.206Z,99902.16
2018-08-31T06:47:55.878Z,99897.64
2018-08-31T06:50:24.489Z,99896.83
2018-08-31T06:52:53.143Z,99902.94
2018-08-31T06:55:21.858Z,99901.36
2018-08-31T06:57:50.617Z,99903.16
2018-08-31T07:00:19.318Z,99903.16
2018-08-31T07:02:47.949Z,99897.09
2018-08-31T07:05:16.605Z,99904.96
2018-08-31T07:07:45.373Z,99894.59
2018-08-31T07:10:14.118Z,99893.77
2018-08-31T07:12:42.865Z,99896.90
2018-08-31T07:15:11.694Z,99900.94
2018-08-31T07:17:41.031Z,99908.49
2018-08-31T07:20:09.723Z,99906.28
2018-08-31T07:22:38.464Z,99912.81
2018-08-31T07:25:07.232Z,99905.09
2018-08-31T07:27:35.988Z,99900.81
2018-08-31T07:30:04.898Z,99897.58
2018-08-31T07:32:34.480Z,99893.13
2018-08-31T07:35:03.148Z,99883.91
2018-08-31T07:37:31.788Z,99894.17
2018-08-31T07:40:00.441Z,99893.04
2018-08-31T07:42:29.066Z,99893.50
2018-08-31T07:44:57.651Z,99896.10
2018-08-31T07:47:26.242Z,99898.25
2018-08-31T07:49:54.882Z,99895.20
2018-08-31T07:52:23.531Z,99891.08
2018-08-31T07:54:52.285Z,99892.63
2018-08-31T07:57:20.906Z,99888.74
2018-08-31T07:59:49.576Z,99890.57
2018-08-31T08:02:18.267Z,99888.76
2018-08-31T08:04:46.945Z,99882.55
2018-08-31T08:07:15.590Z,99879.86
2018-08-31T08:09:44.317Z,99873.29
2018-08-31T08:12:12.996Z,99877.60
2018-08-31T08:14:41.667Z,99880.02
2018-08-31T08:17:10.261Z,99883.70
2018-08-31T08:19:39.011Z,99880.30
2018-08-31T08:22:14.459Z,99879.63
2018-08-31T08:24:43.181Z,99874.38
2018-08-31T08:27:11.822Z,99866.75
2018-08-31T08:29:40.449Z,99861.02
2018-08-31T08:32:09.101Z,99863.23
2018-08-31T08:34:37.697Z,99874.97
2018-08-31T08:37:06.371Z,99869.48
2018-08-31T08:39:35.029Z,99863.81
2018-08-31T08:42:03.703Z,99855.77
2018-08-31T08:44:32.391Z,99853.61
2018-08-31T08:47:01.094Z,99858.72
2018-08-31T08:49:29.911Z,99858.42
2018-08-31T08:51:58.711Z,99856.45
2018-08-31T08:54:27.374Z,99859.30
2018-08-31T08:56:56.226Z,99860.91
2018-08-31T08:59:24.939Z,99861.84
2018-08-31T09:01:53.556Z,99854.78
2018-08-31T09:04:22.272Z,99853.91
2018-08-31T09:06:50.913Z,99855.54
2018-08-31T09:09:19.571Z,99861.39
2018-08-31T09:11:54.483Z,99849.69
2018-08-31T09:14:23.167Z,99854.80
2018-08-31T09:16:51.811Z,99846.40
2018-08-31T09:19:20.776Z,99844.84
2018-08-31T09:21:49.834Z,99842.80
2018-08-31T09:24:18.733Z,99836.81
2018-08-31T09:26:47.725Z,99837.62
2018-08-31T09:29:18.510Z,99840.41
2018-08-31T09:31:47.369Z,99848.05
2018-08-31T09:34:16.371Z,99852.13
2018-08-31T09:36:45.235Z,99852.77
2018-08-31T09:39:13.907Z,99857.16
2018-08-31T09:41:43.281Z,99854.84
2018-08-31T09:44:11.973Z,99852.27
2018-08-31T09:46:41.336Z,99850.06
2018-08-31T09:49:11.179Z,99845.19
2018-08-31T09:51:40.011Z,99845.40
2018-08-31T09:54:08.902Z,99841.86
2018-08-31T09:56:37.727Z,99838.20
2018-08-31T09:59:06.728Z,99852.28
2018-08-31T10:01:37.899Z,99849.16
2018-08-31T10:04:07.342Z,99848.59
2018-08-31T10:06:36.300Z,99849.55
2018-08-31T10:09:06.883Z,99850.61
2018-08-31T10:11:35.696Z,99839.30
2018-08-31T10:14:04.806Z,99840.63
2018-08-31T10:16:38.906Z,99847.53
2018-08-31T10:19:07.660Z,99839.91
2018-08-31T10:21:36.363Z,99833.26
2018-08-31T10:24:05.057Z,99837.92
2018-08-31T10:26:33.735Z,99842.84
2018-08-31T10:29:02.412Z,99832.09
2018-08-31T10:31:36.079Z,99837.23
2018-08-31T10:34:04.830Z,99837.53
2018-08-31T10:36:33.533Z,99836.72
2018-08-31T10:39:02.211Z,99835.33
2018-08-31T10:41:30.931Z,99834.11
2018-08-31T10:43:59.642Z,99835.89
2018-08-31T10:46:28.363Z,99828.98
2018-08-31T10:48:57.037Z,99826.47
2018-08-31T10:51:25.779Z,99826.23
2018-08-31T10:53:54.568Z,99820.85
2018-08-31T10:56:23.334Z,99815.13
2018-08-31T10:58:52.142Z,99814.05
2018-08-31T11:01:20.850Z,99817.39
2018-08-31T11:03:49.579Z,99810.36
2018-08-31T11:06:18.279Z,99810.95
2018-08-31T11:08:47.111Z,99808.23
2018-08-31T11:11:15.815Z,99799.62
2018-08-31T11:13:44.534Z,99806.43
2018-08-31T11:16:13.269Z,99808.10
2018-08-31T11:18:42.039Z,99799.77
2018-08-31T11:21:13.261Z,99800.33
2018-08-31T11:23:42.475Z,99801.30
2018-08-31T11:26:11.220Z,99798.17
2018-08-31T11:28:39.950Z,99793.00
2018-08-31T11:31:08.683Z,99789.04
2018-08-31T11:33:37.867Z,99786.20
2018-08-31T11:36:06.721Z,99786.72
2018-08-31T11:38:35.467Z,99777.30
2018-08-31T11:41:04.165Z,99775.75
2018-08-31T11:43:32.923Z,99776.46
2018-08-31T11:46:01.665Z,99771.95
2018-08-31T11:48:30.471Z,99771.95
2018-08-31T11:50:59.306Z,99771.67
2018-08-31T11:53:28.087Z,99765.35
2018-08-31T11:55:56.830Z,99771.31
2018-08-31T11:58:25.590Z,99768.36
2018-08-31T12:00:54.746Z,99767.91
2018-08-31T12:03:23.394Z,99767.48
2018-08-31T12:05:52.059Z,99762.55
2018-08-31T12:08:20.693Z,99758.38
2018-08-31T12:10:49.331Z,99753.94
2018-08-31T12:13:17.978Z,99754.69
2018-08-31T12:15:46.673Z,99741.87
2018-08-31T12:18:15.345Z,99740.39
2018-08-31T12:20:44.020Z,99741.05
2018-08-31T12:23:12.679Z,99748.11
2018-08-31T12:25:41.327Z,99746.61
2018-08-31T12:28:09.988Z,99746.70
2018-08-31T12:30:38.666Z,99741.94
2018-08-31T12:33:07.582Z,99744.34
2018-08-31T12:35:36.238Z,99742.92
2018-08-31T12:38:04.930Z,99742.50
2018-08-31T12:40:33.616Z,99741.15
2018-08-31T12:43:02.353Z,99742.73
2018-08-31T12:45:31.066Z,99748.78
2018-08-31T12:47:59.717Z,99746.14
2018-08-31T12:50:28.421Z,99738.68
2018-08-31T12:52:58.128Z,99737.71
2018-08-31T12:55:26.835Z,99737.06
2018-08-31T12:57:55.490Z,99731.70
2018-08-31T13:00:24.221Z,99724.34
2018-08-31T13:02:53.216Z,99725.52
2018-08-31T13:05:21.918Z,99718.03
2018-08-31T13:07:50.547Z,99720.80
2018-08-31T13:10:19.331Z,99716.59
2018-08-31T13:12:48.081Z,99711.36
2018-08-31T13:15:16.794Z,99712.78
2018-08-31T13:17:45.534Z,99709.22
2018-08-31T13:20:14.185Z,99713.01
2018-08-31T13:22:42.943Z,99715.44
2018-08-31T13:25:11.653Z,99719.29
2018-08-31T13:27:40.313Z,99714.65
2018-08-31T13:30:09.097Z,99712.69
2018-08-31T13:32:37.785Z,99715.09
2018-08-31T13:35:07.171Z,99710.52
2018-08-31T13:37:35.859Z,99707.70
2018-08-31T13:40:04.558Z,99704.08
2018-08-31T13:42:33.245Z,99702.46
2018-08-31T13:45:01.913Z,99701.25
2018-08-31T13:47:31.037Z,99710.02
2018-08-31T13:49:59.854Z,99715.02
2018-08-31T13:52:28.593Z,99705.88
2018-08-31T13:54:57.203Z,99705.53
2018-08-31T13:57:25.961Z,99704.76
2018-08-31T13:59:54.583Z,99700.32
2018-08-31T14:02:23.263Z,99695.55
2018-08-31T14:04:52.090Z,99693.73
2018-08-31T14:07:20.710Z,99698.32
2018-08-31T14:09:49.498Z,99696.92
2018-08-31T14:12:18.199Z,99697.40
2018-08-31T14:14:46.903Z,99694.01
2018-08-31T14:17:15.967Z,99685.91
2018-08-31T14:19:45.918Z,99685.69
2018-08-31T14:22:14.785Z,99691.64
2018-08-31T14:24:43.466Z,99695.52
2018-08-31T14:27:12.160Z,99701.47
2018-08-31T14:29:40.979Z,99696.35
2018-08-31T14:32:09.611Z,99686.04
2018-08-31T14:34:38.311Z,99687.84
2018-08-31T14:37:07.136Z,99689.22
2018-08-31T14:39:35.890Z,99685.59
2018-08-31T14:42:04.558Z,99677.61
2018-08-31T14:44:33.239Z,99676.31
2018-08-31T14:47:01.982Z,99667.46
2018-08-31T14:49:31.013Z,99670.55
2018-08-31T14:51:59.678Z,99662.17
2018-08-31T14:54:28.310Z,99664.85
2018-08-31T14:56:56.990Z,99667.41
2018-08-31T14:59:25.711Z,99668.36
2018-08-31T15:01:54.489Z,99664.16
2018-08-31T15:04:23.531Z,99662.98
2018-08-31T15:06:52.241Z,99656.74
2018-08-31T15:09:20.922Z,99661.28
2018-08-31T15:11:49.645Z,99655.19
2018-08-31T15:14:18.387Z,99650.55
2018-08-31T15:16:47.110Z,99643.63
2018-08-31T15:19:15.894Z,99641.84
2018-08-31T15:21:44.566Z,99635.48
2018-08-31T15:24:13.326Z,99625.93
2018-08-31T15:26:42.010Z,99630.05
2018-08-31T15:29:10.754Z,99625.94
2018-08-31T15:31:39.408Z,99632.19
2018-08-31T15:34:08.102Z,99627.29
2018-08-31T15:36:36.809Z,99628.50
2018-08-31T15:39:07.815Z,99627.42
2018-08-31T15:41:36.569Z,99618.38
2018-08-31T15:44:05.319Z,99607.34
2018-08-31T15:46:33.980Z,99603.63
2018-08-31T15:49:02.666Z,99607.95
2018-08-31T15:51:31.401Z,99611.46
2018-08-31T15:54:00.082Z,99605.47
2018-08-31T15:56:28.724Z,99597.87
2018-08-31T15:58:57.381Z,99607.58
2018-08-31T16:01:26.009Z,99612.33
2018-08-31T16:03:54.702Z,99625.48
2018-08-31T16:06:23.378Z,99633.11
2018-08-31T16:08:52.046Z,99634.72
2018-08-31T16:11:20.726Z,99631.19
2018-08-31T16:13:49.476Z,99632.28
2018-08-31T16:16:18.450Z,99631.50
2018-08-31T16:18:47.224Z,99625.89
2018-08-31T16:21:15.898Z,99621.72
2018-08-31T16:23:44.619Z,99628.42
2018-08-31T16:26:13.253Z,99629.98
2018-08-31T16:28:41.884Z,99630.63
2018-08-31T16:31:10.719Z,99624.86
2018-08-31T16:33:39.309Z,99636.71
2018-08-31T16:36:08.529Z,99634.16
2018-08-31T16:38:37.177Z,99631.09
2018-08-31T16:41:05.798Z,99628.02
2018-08-31T16:43:34.448Z,99634.03
2018-08-31T16:46:03.205Z,99637.78
2018-08-31T16:48:31.834Z,99631.54
2018-08-31T16:51:00.477Z,99629.61
2018-08-31T16:53:29.225Z,99634.23
2018-08-31T16:55:57.884Z,99627.80
2018-08-31T16:58:26.670Z,99635.42
2018-08-31T17:00:55.246Z,99634.57
2018-08-31T17:03:23.889Z,99632.09
2018-08-31T17:05:52.502Z,99632.91
2018-08-31T17:08:21.122Z,99633.94
2018-08-31T17:10:55.321Z,99634.09
2018-08-31T17:13:23.978Z,99639.00
2018-08-31T17:15:52.590Z,99629.63
2018-08-31T17:18:21.256Z,99632.75
2018-08-31T17:20:49.852Z,99636.12
2018-08-31T17:23:18.495Z,99644.12
2018-08-31T17:25:47.128Z,99635.09
2018-08-31T17:28:20.998Z,99636.36
2018-08-31T17:30:53.767Z,99640.33
2018-08-31T17:33:27.553Z,99636.52
2018-08-31T17:36:01.447Z,99638.81
2018-08-31T17:38:30.122Z,99638.05
2018-08-31T17:40:58.756Z,99640.75
2018-08-31T17:43:27.398Z,99634.67
2018-08-31T17:45:57.004Z,99631.70
2018-08-31T17:48:26.038Z,99631.70
2018-08-31T17:50:55.031Z,99631.97
2018-08-31T17:53:23.625Z,99636.05
2018-08-31T17:55:52.345Z,99639.94
2018-08-31T17:58:20.986Z,99645.71
2018-08-31T18:00:49.694Z,99643.84
2018-08-31T18:03:18.286Z,99650.61
2018-08-31T18:05:46.963Z,99655.98
2018-08-31T18:08:15.570Z,99653.45
2018-08-31T18:10:44.278Z,99657.45
2018-08-31T18:13:12.901Z,99663.21
2018-08-31T18:15:41.578Z,99661.97
2018-08-31T18:18:10.241Z,99656.72
2018-08-31T18:20:38.966Z,99654.09
2018-08-31T18:23:07.606Z,99657.20
2018-08-31T18:25:36.282Z,99661.89
2018-08-31T18:28:04.919Z,99664.10
2018-08-31T18:30:33.538Z,99662.34
2018-08-31T18:33:02.226Z,99659.87
2018-08-31T18:35:30.875Z,99652.06
2018-08-31T18:37:59.509Z,99656.58
2018-08-31T18:40:28.206Z,99665.19
2018-08-31T18:42:57.383Z,99664.88
2018-08-31T18:45:26.441Z,99668.37
2018-08-31T18:47:55.086Z,99666.33
2018-08-31T18:50:23.747Z,99671.23
2018-08-31T18:52:52.369Z,99676.05
2018-08-31T18:55:21.010Z,99687.67
2018-08-31T18:57:49.714Z,99681.11
2018-08-31T19:00:18.394Z,99681.89
2018-08-31T19:02:47.387Z,99677.73
2018-08-31T19:05:16.109Z,99664.83
2018-08-31T19:07:44.797Z,99673.48
2018-08-31T19:10:13.450Z,99666.66
2018-08-31T19:12:42.118Z,99666.91
2018-08-31T19:15:10.764Z,99658.30
2018-08-31T19:17:39.506Z,99663.39
2018-08-31T19:20:08.204Z,99672.38
2018-08-31T19:22:36.991Z,99667.98
2018-08-31T19:25:05.718Z,99665.37
2018-08-31T19:27:34.319Z,99655.58
2018-08-31T19:30:02.951Z,99654.69
2018-08-31T19:32:31.611Z,99660.55
2018-08-31T19:35:00.317Z,99650.94
2018-08-31T19:37:28.994Z,99641.22
2018-08-31T19:39:57.707Z,99648.28
2018-08-31T19:42:26.461Z,99654.11
2018-08-31T19:44:55.233Z,99661.39
2018-08-31T19:47:24.007Z,99659.75
2018-08-31T19:49:53.079Z,99667.39
2018-08-31T19:52:21.763Z,99667.33
2018-08-31T19:54:50.390Z,99664.44
2018-08-31T19:57:19.149Z,99660.80
2018-08-31T19:59:47.813Z,99662.00
2018-08-31T20:02:16.510Z,99657.23
2018-08-31T20:04:45.202Z,99660.48
2018-08-31T20:07:14.227Z,99660.24
2018-08-31T20:09:43.020Z,99659.18
2018-08-31T20:12:11.755Z,99664.31
2018-08-31T20:14:40.419Z,99665.45
2018-08-31T20:17:09.084Z,99663.89
2018-08-31T20:19:37.779Z,99665.31
2018-08-31T20:22:09.486Z,99673.80
2018-08-31T20:24:38.154Z,99686.48
2018-08-31T20:27:06.867Z,99697.69
2018-08-31T20:29:35.503Z,99702.88
2018-08-31T20:32:04.294Z,99705.28
2018-08-31T20:34:32.961Z,99703.37
2018-08-31T20:37:01.580Z,99691.38
2018-08-31T20:39:30.236Z,99693.48
2018-08-31T20:41:58.861Z,99700.72
2018-08-31T20:44:27.646Z,99700.65
2018-08-31T20:46:56.284Z,99699.76
2018-08-31T20:49:24.931Z,99706.70
2018-08-31T20:51:53.578Z,99702.77
2018-08-31T20:54:22.359Z,99706.81
2018-08-31T20:56:51.042Z,99702.69
2018-08-31T20:59:19.664Z,99709.27
2018-08-31T21:01:48.323Z,99708.19
2018-08-31T21:04:17.007Z,99707.98
2018-08-31T21:06:45.750Z,99711.48
2018-08-31T21:09:14.421Z,99703.30
2018-08-31T21:11:43.086Z,99695.70
2018-08-31T21:14:11.737Z,99688.66
2018-08-31T21:16:40.343Z,99693.09
2018-08-31T21:19:09.005Z,99688.81
2018-08-31T21:21:37.948Z,99682.86
2018-08-31T21:24:06.622Z,99675.19
2018-08-31T21:26:35.274Z,99679.69
2018-08-31T21:29:03.950Z,99674.19
2018-08-31T21:31:32.639Z,99676.19
2018-08-31T21:34:01.326Z,99674.13
2018-08-31T21:36:30.013Z,99681.08
2018-08-31T21:38:58.711Z,99677.52
2018-08-31T21:41:27.395Z,99675.08
2018-08-31T21:43:56.120Z,99669.94
2018-08-31T21:46:24.763Z,99670.23
2018-08-31T21:48:53.465Z,99668.44
2018-08-31T21:51:22.150Z,99670.09
2018-08-31T21:53:50.832Z,99672.00
2018-08-31T21:56:19.487Z,99666.81
2018-08-31T21:58:48.200Z,99663.43
2018-08-31T22:01:22.214Z,99654.44
2018-08-31T22:03:50.966Z,99644.90
2018-08-31T22:06:19.607Z,99649.25
2018-08-31T22:08:48.263Z,99662.06
2018-08-31T22:11:16.936Z,99676.77
2018-08-31T22:13:45.638Z,99687.84
2018-08-31T22:16:14.312Z,99684.77
2018-08-31T22:18:43.001Z,99686.00
2018-08-31T22:21:11.727Z,99677.15
2018-08-31T22:23:40.354Z,99674.91
2018-08-31T22:26:09.083Z,99672.52
2018-08-31T22:28:37.739Z,99682.45
2018-08-31T22:31:06.456Z,99688.93
2018-08-31T22:33:35.123Z,99682.74
2018-08-31T22:36:03.919Z,99679.69
2018-08-31T22:38:32.646Z,99676.34
2018-08-31T22:41:01.290Z,99673.11
2018-08-31T22:43:35.074Z,99674.41
2018-08-31T22:46:03.756Z,99663.88
2018-08-31T22:48:32.480Z,99666.41
2018-08-31T22:51:01.105Z,99665.57
2018-08-31T22:53:29.837Z,99667.32
2018-08-31T22:55:58.499Z,99664.42
2018-08-31T22:58:27.191Z,99660.14
2018-08-31T23:00:55.921Z,99649.30
2018-08-31T23:03:24.662Z,99647.55
2018-08-31T23:05:54.626Z,99646.86
2018-08-31T23:08:23.286Z,99643.20
2018-08-31T23:10:51.987Z,99646.68
2018-08-31T23:13:20.701Z,99650.56
2018-08-31T23:15:49.266Z,99651.39
2018-08-31T23:18:17.985Z,99643.14
2018-08-31T23:20:46.742Z,99642.05
2018-08-31T23:23:20.357Z,99636.96
2018-08-31T23:25:49.080Z,99627.36
2018-08-31T23:28:18.378Z,99632.09
2018-08-31T23:30:47.165Z,99620.66
2018-08-31T23:33:15.991Z,99624.70
2018-08-31T23:35:44.843Z,99619.80
2018-08-31T23:38:14.011Z,99617.20
2018-08-31T23:40:42.739Z,99617.27
2018-08-31T23:43:11.395Z,99624.42
2018-08-31T23:45:40.012Z,99627.79
2018-08-31T23:48:08.686Z,99627.50
2018-08-31T23:50:37.266Z,99621.56
2018-08-31T23:53:05.969Z,99617.89
2018-08-31T23:55:34.648Z,99615.35
2018-08-31T23:58:03.395Z,99617.06
